createdAt,value
2023-04-15T00:01:37.314Z,9.20
2023-04-15T00:04:05.146Z,9.20
2023-04-15T00:06:32.062Z,9.20
2023-04-15T00:08:59.081Z,9.20
2023-04-15T00:11:26.156Z,9.20
2023-04-15T00:13:53.100Z,9.10
2023-04-15T00:16:19.953Z,9.10
2023-04-15T00:18:47.163Z,9.00
2023-04-15T00:21:14.268Z,9.00
2023-04-15T00:23:41.162Z,8.90
2023-04-15T00:26:08.633Z,8.80
2023-04-15T00:28:35.497Z,8.80
2023-04-15T00:31:02.432Z,8.70
2023-04-15T00:33:29.275Z,8.70
2023-04-15T00:35:56.086Z,8.60
2023-04-15T00:38:23.191Z,8.60
2023-04-15T00:40:50.514Z,8.50
2023-04-15T00:43:17.675Z,8.50
2023-04-15T00:45:44.596Z,8.40
2023-04-15T00:48:12.165Z,8.40
2023-04-15T00:50:39.237Z,8.30
2023-04-15T00:53:06.195Z,8.40
2023-04-15T00:55:33.036Z,8.40
2023-04-15T00:57:59.907Z,8.40
2023-04-15T01:00:27.280Z,8.30
2023-04-15T19:55:25.417Z,12.60
2023-04-15T19:57:52.225Z,12.50
2023-04-15T20:00:19.086Z,12.40
2023-04-15T20:02:46.497Z,12.30
2023-04-15T20:05:13.920Z,12.20
2023-04-15T20:07:42.596Z,12.10
2023-04-15T20:10:12.997Z,12.00
2023-04-15T20:12:50.394Z,12.00
2023-04-15T20:15:19.857Z,11.90
2023-04-15T20:17:47.971Z,11.80
2023-04-15T20:20:15.058Z,11.80
2023-04-15T20:22:41.999Z,11.70
2023-04-15T20:25:09.396Z,11.70
2023-04-15T20:27:37.244Z,11.60
2023-04-15T20:30:05.125Z,11.60
2023-04-15T20:32:36.012Z,11.40
2023-04-15T20:35:05.601Z,11.30
2023-04-15T20:37:33.828Z,11.20
2023-04-15T20:40:01.406Z,11.20
2023-04-15T20:42:32.282Z,11.10
2023-04-15T20:44:59.220Z,11.00
2023-04-15T20:47:26.377Z,11.00
2023-04-15T20:49:54.125Z,10.90
2023-04-15T20:52:21.193Z,10.90
2023-04-15T20:54:48.045Z,10.90
2023-04-15T20:57:14.881Z,10.80
2023-04-15T20:59:41.711Z,10.80
2023-04-15T21:02:08.863Z,10.70
2023-04-15T21:04:37.968Z,10.70
2023-04-15T21:07:04.888Z,10.60
2023-04-15T21:09:31.796Z,10.60
2023-04-15T21:12:01.635Z,10.60
2023-04-15T21:14:29.219Z,10.50
2023-04-15T21:16:58.268Z,10.50
2023-04-15T21:19:25.244Z,10.40
2023-04-15T21:21:52.633Z,10.30
2023-04-15T21:24:19.776Z,10.30
2023-04-15T21:26:46.619Z,10.20
2023-04-15T21:29:13.703Z,10.20
2023-04-15T21:31:40.930Z,10.10
2023-04-15T21:34:08.100Z,10.00
2023-04-15T21:36:35.363Z,9.90
2023-04-15T21:39:02.244Z,9.90
2023-04-15T21:41:29.260Z,9.70
2023-04-15T21:43:56.129Z,9.70
2023-04-15T21:46:25.575Z,9.60
2023-04-15T21:48:59.446Z,9.50
2023-04-15T21:51:26.683Z,9.40
2023-04-15T21:53:53.561Z,9.30
2023-04-15T21:56:22.656Z,9.30
2023-04-15T21:58:50.117Z,9.20
2023-04-15T22:01:17.476Z,9.10
2023-04-15T22:03:46.105Z,9.00
2023-04-15T22:06:13.830Z,9.00
2023-04-15T22:08:54.952Z,8.90
2023-04-15T22:11:27.162Z,8.80
2023-04-15T22:13:55.198Z,8.80
2023-04-15T22:16:22.248Z,8.80
2023-04-15T22:18:49.224Z,9.00
2023-04-15T22:21:16.369Z,9.30
2023-04-15T22:23:47.535Z,9.70
2023-04-15T22:26:14.460Z,10.00
2023-04-15T22:28:41.824Z,10.20
2023-04-15T22:31:08.764Z,10.50
2023-04-15T22:33:35.753Z,10.80
2023-04-15T22:36:02.576Z,11.00
2023-04-15T22:38:29.405Z,11.30
2023-04-15T22:40:56.462Z,11.60
2023-04-15T22:43:23.287Z,11.80
2023-04-15T22:45:51.467Z,12.00
2023-04-15T22:48:18.979Z,12.20
2023-04-15T22:50:46.130Z,12.30
2023-04-15T22:53:13.187Z,12.40
2023-04-15T22:55:40.055Z,12.40
2023-04-15T22:58:06.846Z,12.30
2023-04-15T23:00:33.638Z,12.10
2023-04-15T23:03:00.716Z,12.00
2023-04-15T23:05:27.912Z,11.70
2023-04-15T23:07:54.730Z,11.50
2023-04-15T23:10:21.648Z,11.40
2023-04-15T23:12:48.460Z,11.20
2023-04-15T23:15:15.799Z,11.10
2023-04-15T23:17:43.378Z,11.00
2023-04-15T23:20:11.343Z,10.90
2023-04-15T23:22:38.628Z,10.70
2023-04-15T23:25:06.202Z,10.60
2023-04-15T23:27:33.593Z,10.50
2023-04-15T23:30:00.461Z,10.40
2023-04-15T23:32:27.718Z,10.30
2023-04-15T23:34:54.533Z,10.20
2023-04-15T23:37:21.392Z,10.20
2023-04-15T23:39:48.191Z,10.10
2023-04-15T23:42:17.433Z,10.00
2023-04-15T23:44:44.934Z,9.90
2023-04-15T23:47:11.805Z,9.90
2023-04-15T23:49:40.924Z,9.90
2023-04-15T23:52:08.029Z,9.80
2023-04-15T23:54:35.112Z,9.60
2023-04-15T23:57:03.505Z,9.60
2023-04-15T23:59:30.403Z,9.50
